createdAt,value
2017-05-02T00:00:52.665Z,56.52
2017-05-02T00:03:20.172Z,55.18
2017-05-02T00:05:46.937Z,56.52
2017-05-02T00:08:13.701Z,58.27
2017-05-02T00:10:41.246Z,67.78
2017-05-02T00:13:08.237Z,55.27
2017-05-02T00:15:35.007Z,66.30
2017-05-02T00:18:02.355Z,56.20
2017-05-02T00:20:29.108Z,57.78
2017-05-02T00:22:55.864Z,56.02
2017-05-02T00:25:23.204Z,55.13
2017-05-02T00:27:49.957Z,57.33
2017-05-02T00:30:16.717Z,44.70
2017-05-02T00:32:43.970Z,60.50
2017-05-02T00:35:10.740Z,58.70
2017-05-02T00:37:37.500Z,56.77
2017-05-02T00:40:04.565Z,54.35
2017-05-02T00:42:31.333Z,50.50
2017-05-02T00:44:58.097Z,57.78
2017-05-02T00:47:25.172Z,55.02
2017-05-02T00:49:51.933Z,56.40
2017-05-02T00:52:18.792Z,53.77
2017-05-02T00:54:45.570Z,52.23
2017-05-02T00:57:12.756Z,53.77
2017-05-02T00:59:39.804Z,47.33
2017-05-02T01:02:06.557Z,65.27
2017-05-02T01:04:33.324Z,51.92
2017-05-02T01:07:00.724Z,47.98
2017-05-02T01:09:27.484Z,54.48
2017-05-02T01:11:54.244Z,56.20
2017-05-02T01:14:21.437Z,55.23
2017-05-02T01:16:48.201Z,54.18
2017-05-02T01:19:14.956Z,55.78
2017-05-02T01:21:41.997Z,52.80
2017-05-02T01:24:09.088Z,51.07
2017-05-02T01:26:35.865Z,59.20
2017-05-02T01:29:03.208Z,55.02
2017-05-02T01:31:29.968Z,49.27
2017-05-02T01:33:56.732Z,52.98
2017-05-02T01:36:23.789Z,58.28
2017-05-02T01:38:50.546Z,47.03
2017-05-02T01:41:17.297Z,59.15
2017-05-02T01:43:44.370Z,48.62
2017-05-02T01:46:11.127Z,54.83
2017-05-02T01:48:37.875Z,54.57
2017-05-02T01:51:04.926Z,49.42
2017-05-02T01:53:31.919Z,46.85
2017-05-02T01:55:58.685Z,51.08
2017-05-02T01:58:26.042Z,49.15
2017-05-02T02:00:52.791Z,53.80
2017-05-02T02:03:19.555Z,50.57
2017-05-02T02:05:47.098Z,47.40
2017-05-02T02:08:13.861Z,49.08
2017-05-02T02:10:40.621Z,54.53
2017-05-02T02:13:08.214Z,57.10
2017-05-02T02:15:34.973Z,67.22
2017-05-02T02:18:01.724Z,55.42
2017-05-02T02:20:28.800Z,62.82
2017-05-02T02:22:55.557Z,55.58
2017-05-02T02:25:22.304Z,55.67
2017-05-02T02:27:49.381Z,63.00
2017-05-02T02:30:16.141Z,56.15
2017-05-02T02:32:42.909Z,51.10
2017-05-02T02:35:09.953Z,47.30
2017-05-02T02:37:36.701Z,55.90
2017-05-02T02:40:03.457Z,59.40
2017-05-02T02:42:30.509Z,67.05
2017-05-02T02:44:57.267Z,54.10
2017-05-02T02:47:24.015Z,55.87
2017-05-02T02:49:51.072Z,53.27
2017-05-02T02:52:17.842Z,69.08
2017-05-02T02:54:44.599Z,64.43
2017-05-02T02:57:11.685Z,59.98
2017-05-02T02:59:38.436Z,52.15
2017-05-02T03:02:05.192Z,65.32
2017-05-02T03:04:32.459Z,61.62
2017-05-02T03:06:59.225Z,58.13
2017-05-02T03:09:25.981Z,62.82
2017-05-02T03:11:53.032Z,64.05
2017-05-02T03:14:19.775Z,64.43
2017-05-02T03:16:46.524Z,74.18
2017-05-02T03:19:13.597Z,76.12
2017-05-02T03:21:40.354Z,63.00
2017-05-02T03:24:07.116Z,68.42
2017-05-02T03:26:34.485Z,71.22
2017-05-02T03:29:01.227Z,57.13
2017-05-02T03:31:27.984Z,69.15
2017-05-02T03:33:55.074Z,67.92
2017-05-02T03:36:21.820Z,54.88
2017-05-02T03:38:48.577Z,53.13
2017-05-02T03:41:15.628Z,67.85
2017-05-02T03:43:42.385Z,68.70
2017-05-02T03:46:09.135Z,63.45
2017-05-02T03:48:36.209Z,54.77
2017-05-02T03:51:03.452Z,65.45
2017-05-02T03:53:30.208Z,60.13
2017-05-02T03:55:57.821Z,76.78
2017-05-02T03:58:24.576Z,71.05
2017-05-02T04:00:51.333Z,65.58
2017-05-02T04:03:18.381Z,66.32
2017-05-02T04:05:45.148Z,62.55
2017-05-02T04:08:11.905Z,70.28
2017-05-02T04:10:38.964Z,71.65
2017-05-02T04:13:05.717Z,73.70
2017-05-02T04:15:32.472Z,75.25
2017-05-02T04:17:59.525Z,67.87
2017-05-02T04:20:26.580Z,83.23
2017-05-02T04:22:53.333Z,72.95
2017-05-02T04:25:20.526Z,83.23
2017-05-02T04:27:47.290Z,68.43
2017-05-02T04:30:14.056Z,83.48
2017-05-02T04:32:41.437Z,78.23
2017-05-02T04:35:08.194Z,74.98
2017-05-02T04:37:34.943Z,72.23
2017-05-02T04:40:02.297Z,77.07
2017-05-02T04:42:29.067Z,70.08
2017-05-02T04:44:55.820Z,88.78
2017-05-02T04:47:22.956Z,79.62
2017-05-02T04:49:49.725Z,75.28
2017-05-02T04:52:16.489Z,89.02
2017-05-02T04:54:43.794Z,89.05
2017-05-02T04:57:10.552Z,85.95
2017-05-02T04:59:37.304Z,82.43
2017-05-02T05:02:04.390Z,95.25
2017-05-02T05:04:31.150Z,92.62
2017-05-02T05:06:57.913Z,88.68
2017-05-02T05:09:25.114Z,79.67
2017-05-02T05:11:51.875Z,79.48
2017-05-02T05:14:18.624Z,79.40
2017-05-02T05:16:45.870Z,73.03
2017-05-02T05:19:12.624Z,76.15
2017-05-02T05:21:39.385Z,73.03
2017-05-02T05:24:06.433Z,80.48
2017-05-02T05:26:33.185Z,86.42
2017-05-02T05:28:59.954Z,97.38
2017-05-02T05:31:26.996Z,86.27
2017-05-02T05:33:53.752Z,79.17
2017-05-02T05:36:20.509Z,91.23
2017-05-02T05:38:47.583Z,83.93
2017-05-02T05:41:14.340Z,98.10
2017-05-02T05:43:41.083Z,68.20
2017-05-02T05:46:09.180Z,74.45
2017-05-02T05:48:35.951Z,64.47
2017-05-02T05:51:02.709Z,77.62
2017-05-02T05:53:29.771Z,70.82
2017-05-02T05:55:56.525Z,64.38
2017-05-02T05:58:30.333Z,64.82
2017-05-02T06:00:57.096Z,79.70
2017-05-02T06:03:23.861Z,80.85
2017-05-02T06:05:50.956Z,79.72
2017-05-02T06:08:17.725Z,63.07
2017-05-02T06:10:44.484Z,68.52
2017-05-02T06:13:11.701Z,65.73
2017-05-02T06:15:38.456Z,68.52
2017-05-02T06:18:05.197Z,64.65
2017-05-02T06:20:32.249Z,50.52
2017-05-02T06:22:59.001Z,60.98
2017-05-02T06:25:25.777Z,51.72
2017-05-02T06:27:52.945Z,55.95
2017-05-02T06:30:19.696Z,62.08
2017-05-02T06:32:46.443Z,57.52
2017-05-02T06:35:14.528Z,65.67
2017-05-02T06:37:41.290Z,50.70
2017-05-02T06:40:08.040Z,59.90
2017-05-02T06:42:35.388Z,53.03
2017-05-02T06:45:02.162Z,48.75
2017-05-02T06:47:28.920Z,48.17
2017-05-02T06:49:55.968Z,46.05
2017-05-02T06:52:22.733Z,43.67
2017-05-02T06:54:49.484Z,42.13
2017-05-02T06:57:16.678Z,39.32
2017-05-02T06:59:43.438Z,40.62
2017-05-02T07:02:10.441Z,38.10
2017-05-02T07:04:37.501Z,34.15
2017-05-02T07:07:04.256Z,34.58
2017-05-02T07:09:31.118Z,37.15
2017-05-02T07:11:58.174Z,40.48
2017-05-02T07:14:24.936Z,32.60
2017-05-02T07:16:51.689Z,35.73
2017-05-02T07:19:18.744Z,27.98
2017-05-02T07:21:45.489Z,31.75
2017-05-02T07:24:12.236Z,30.48
2017-05-02T07:26:40.505Z,32.55
2017-05-02T07:29:07.251Z,32.17
2017-05-02T07:31:34.006Z,25.85
2017-05-02T07:34:01.466Z,30.10
2017-05-02T07:36:28.229Z,28.92
2017-05-02T07:38:54.990Z,31.62
2017-05-02T07:41:22.302Z,25.75
2017-05-02T07:43:49.053Z,27.60
2017-05-02T07:46:15.817Z,24.57
2017-05-02T07:48:43.137Z,20.67
2017-05-02T07:51:10.156Z,21.80
2017-05-02T07:53:36.915Z,23.98
2017-05-02T07:56:04.481Z,23.28
2017-05-02T07:58:31.246Z,25.10
2017-05-02T08:00:58.008Z,28.00
2017-05-02T08:03:25.315Z,22.78
2017-05-02T08:05:52.073Z,23.65
2017-05-02T08:08:18.823Z,24.90
2017-05-02T08:10:45.897Z,24.62
2017-05-02T08:13:12.648Z,26.20
2017-05-02T08:15:39.407Z,25.37
2017-05-02T08:18:06.858Z,23.68
2017-05-02T08:20:33.608Z,23.77
2017-05-02T08:23:00.357Z,28.77
2017-05-02T08:25:27.799Z,23.85
2017-05-02T08:27:54.790Z,23.65
2017-05-02T08:30:21.547Z,25.35
2017-05-02T08:32:48.603Z,22.87
2017-05-02T08:35:15.365Z,26.22
2017-05-02T08:37:42.133Z,21.35
2017-05-02T08:40:09.472Z,25.90
2017-05-02T08:42:36.222Z,21.70
2017-05-02T08:45:02.973Z,21.03
2017-05-02T08:47:30.401Z,21.65
2017-05-02T08:49:57.165Z,24.07
2017-05-02T08:52:23.921Z,20.93
2017-05-02T08:54:50.947Z,19.07
2017-05-02T08:57:17.936Z,21.43
2017-05-02T08:59:44.688Z,16.80
2017-05-02T09:02:11.969Z,19.45
2017-05-02T09:04:38.729Z,16.20
2017-05-02T09:07:05.484Z,15.50
2017-05-02T09:09:32.801Z,19.72
2017-05-02T09:11:59.552Z,17.15
2017-05-02T09:14:26.303Z,17.57
2017-05-02T09:16:54.085Z,13.33
2017-05-02T09:19:20.836Z,13.83
2017-05-02T09:21:47.592Z,15.25
2017-05-02T09:24:14.619Z,16.73
2017-05-02T09:26:41.371Z,13.53
2017-05-02T09:29:08.124Z,16.72
2017-05-02T09:31:35.265Z,12.77
2017-05-02T09:34:02.022Z,14.62
2017-05-02T09:36:29.034Z,15.72
2017-05-02T09:38:56.143Z,13.90
2017-05-02T09:41:22.888Z,13.10
2017-05-02T09:43:49.639Z,13.27
2017-05-02T09:46:17.912Z,13.23
2017-05-02T09:48:44.672Z,15.72
2017-05-02T09:51:11.429Z,15.12
2017-05-02T09:53:39.256Z,16.40
2017-05-02T09:56:06.014Z,16.37
2017-05-02T09:58:32.776Z,16.42
2017-05-02T10:01:00.152Z,14.85
2017-05-02T10:03:26.914Z,16.63
2017-05-02T10:05:53.663Z,15.52
2017-05-02T10:08:20.944Z,17.48
2017-05-02T10:10:47.698Z,17.37
2017-05-02T10:13:14.455Z,14.83
2017-05-02T10:15:41.248Z,15.53
2017-05-02T10:18:08.005Z,15.67
2017-05-02T10:20:35.213Z,15.83
2017-05-02T10:23:02.001Z,13.60
2017-05-02T10:25:28.752Z,14.33
2017-05-02T10:27:55.501Z,14.27
2017-05-02T10:30:22.298Z,15.10
2017-05-02T10:32:49.529Z,13.10
2017-05-02T10:35:16.289Z,14.12
2017-05-02T10:37:43.073Z,13.48
2017-05-02T10:40:09.828Z,13.23
2017-05-02T10:42:36.572Z,13.68
2017-05-02T10:45:03.364Z,13.50
2017-05-02T10:47:30.118Z,13.43
2017-05-02T10:49:56.879Z,14.15
2017-05-02T10:52:24.025Z,13.42
2017-05-02T10:54:50.789Z,12.73
2017-05-02T10:57:17.548Z,13.95
2017-05-02T10:59:44.337Z,11.88
2017-05-02T11:02:11.100Z,14.45
2017-05-02T11:04:37.852Z,13.87
2017-05-02T11:07:04.636Z,14.38
2017-05-02T11:09:31.388Z,15.75
2017-05-02T11:11:58.136Z,12.68
2017-05-02T11:14:24.933Z,13.95
2017-05-02T11:16:51.685Z,13.30
2017-05-02T11:19:18.442Z,12.80
2017-05-02T11:21:45.244Z,11.00
2017-05-02T11:24:11.992Z,10.98
2017-05-02T11:26:38.740Z,11.72
2017-05-02T11:29:05.974Z,12.55
2017-05-02T11:31:32.731Z,9.17
2017-05-02T11:34:00.375Z,10.20
2017-05-02T11:36:27.160Z,11.47
2017-05-02T11:38:53.934Z,12.55
2017-05-02T11:41:20.701Z,13.15
2017-05-02T11:43:47.488Z,12.98
2017-05-02T11:46:15.136Z,13.12
2017-05-02T11:48:41.902Z,13.15
2017-05-02T11:51:08.688Z,13.15
2017-05-02T11:53:35.449Z,13.05
2017-05-02T11:56:02.209Z,14.07
2017-05-02T11:58:28.999Z,13.85
2017-05-02T12:00:55.765Z,16.00
2017-05-02T12:03:22.516Z,14.77
2017-05-02T12:05:49.697Z,13.65
2017-05-02T12:08:16.462Z,12.73
2017-05-02T12:10:43.220Z,12.37
2017-05-02T12:13:10.533Z,14.43
2017-05-02T12:15:37.298Z,13.43
2017-05-02T12:18:04.061Z,14.50
2017-05-02T12:20:31.141Z,13.22
2017-05-02T12:22:57.903Z,16.55
2017-05-02T12:25:24.668Z,19.03
2017-05-02T12:27:51.704Z,16.60
2017-05-02T12:30:18.460Z,16.33
2017-05-02T12:32:45.220Z,18.43
2017-05-02T12:35:12.293Z,17.45
2017-05-02T12:37:39.813Z,18.48
2017-05-02T12:40:06.572Z,16.95
2017-05-02T12:42:33.737Z,17.35
2017-05-02T12:45:00.502Z,19.82
2017-05-02T12:47:27.269Z,17.07
2017-05-02T12:49:54.320Z,18.67
2017-05-02T12:52:21.067Z,17.58
2017-05-02T12:57:14.962Z,18.60
2017-05-02T12:59:41.752Z,16.83
2017-05-02T13:02:08.513Z,20.65
2017-05-02T13:04:35.842Z,17.27
2017-05-02T13:07:02.605Z,16.07
2017-05-02T13:09:29.377Z,21.75
2017-05-02T13:11:56.680Z,18.60
2017-05-02T13:14:23.854Z,18.87
2017-05-02T13:16:50.620Z,19.17
2017-05-02T13:19:18.249Z,21.25
2017-05-02T13:21:45.031Z,18.77
2017-05-02T13:24:11.800Z,18.23
2017-05-02T13:26:39.513Z,16.25
2017-05-02T13:29:06.268Z,17.80
2017-05-02T13:31:36.649Z,15.43
2017-05-02T13:34:03.797Z,19.52
2017-05-02T13:36:30.945Z,19.03
2017-05-02T13:38:57.725Z,20.65
2017-05-02T13:41:27.336Z,15.43
2017-05-02T13:43:54.100Z,19.00
2017-05-02T13:46:20.875Z,18.88
2017-05-02T13:48:48.222Z,20.95
2017-05-02T13:51:15.001Z,20.02
2017-05-02T13:56:17.776Z,18.45
2017-05-02T13:58:44.953Z,20.42
2017-05-02T14:01:12.174Z,22.97
2017-05-02T14:03:39.387Z,23.23
2017-05-02T14:06:06.131Z,23.17
2017-05-02T14:08:34.283Z,21.90
2017-05-02T14:11:01.884Z,21.42
2017-05-02T14:13:29.048Z,18.58
2017-05-02T14:15:56.415Z,18.38
2017-05-02T14:18:24.869Z,19.73
2017-05-02T14:20:51.677Z,20.52
2017-05-02T14:23:18.444Z,20.68
2017-05-02T14:25:45.529Z,23.52
2017-05-02T14:28:12.280Z,17.78
2017-05-02T14:30:39.028Z,20.88
2017-05-02T14:33:06.308Z,19.00
2017-05-02T14:35:34.056Z,20.70
2017-05-02T14:38:01.058Z,18.03
2017-05-02T14:40:28.173Z,18.43
2017-05-02T14:42:55.320Z,20.28
2017-05-02T14:45:22.076Z,17.55
2017-05-02T14:47:49.149Z,18.98
2017-05-02T14:50:15.913Z,20.43
2017-05-02T14:52:42.677Z,17.88
2017-05-02T14:55:10.218Z,21.23
2017-05-02T14:57:37.401Z,20.95
2017-05-02T15:00:04.152Z,26.25
2017-05-02T15:02:31.269Z,20.72
2017-05-02T15:04:58.016Z,25.47
2017-05-02T15:07:24.793Z,25.65
2017-05-02T15:09:52.004Z,25.43
2017-05-02T15:12:18.784Z,21.67
2017-05-02T15:14:45.548Z,25.28
2017-05-02T15:17:13.631Z,22.80
2017-05-02T15:19:40.384Z,21.63
2017-05-02T15:22:07.144Z,21.30
2017-05-02T15:24:34.271Z,20.55
2017-05-02T15:27:01.097Z,22.27
2017-05-02T15:29:27.876Z,24.43
2017-05-02T15:31:55.268Z,26.80
2017-05-02T15:34:22.022Z,24.72
2017-05-02T15:36:48.783Z,23.55
2017-05-02T15:39:16.285Z,22.22
2017-05-02T15:41:43.032Z,24.15
2017-05-02T15:44:12.270Z,24.27
2017-05-02T15:46:39.695Z,22.00
2017-05-02T15:49:10.739Z,24.82
2017-05-02T15:51:37.502Z,23.72
2017-05-02T15:54:04.691Z,22.65
2017-05-02T15:56:31.444Z,25.55
2017-05-02T15:58:58.441Z,25.63
2017-05-02T16:01:25.515Z,25.83
2017-05-02T16:03:52.263Z,22.12
2017-05-02T16:06:19.022Z,27.90
2017-05-02T16:08:48.957Z,23.58
2017-05-02T16:11:15.713Z,25.12
2017-05-02T16:13:42.461Z,26.53
2017-05-02T16:16:09.966Z,23.90
2017-05-02T16:18:36.716Z,25.28
2017-05-02T16:21:03.477Z,28.58
2017-05-02T16:23:30.564Z,25.45
2017-05-02T16:25:57.328Z,27.15
2017-05-02T16:28:26.146Z,28.08
2017-05-02T16:30:54.477Z,24.58
2017-05-02T16:33:21.234Z,28.48
2017-05-02T16:35:47.991Z,25.05
2017-05-02T16:38:17.085Z,26.00
2017-05-02T16:40:43.870Z,26.18
2017-05-02T16:43:10.673Z,26.65
2017-05-02T16:45:41.808Z,28.35
2017-05-02T16:48:09.272Z,26.88
2017-05-02T16:50:36.030Z,23.53
2017-05-02T16:53:03.843Z,25.07
2017-05-02T16:55:30.596Z,23.35
2017-05-02T16:57:57.351Z,25.85
2017-05-02T17:00:24.985Z,21.18
2017-05-02T17:05:23.188Z,23.72
2017-05-02T17:07:50.622Z,23.30
2017-05-02T17:10:17.380Z,20.15
2017-05-02T17:12:45.573Z,20.58
2017-05-02T17:15:19.150Z,26.02
2017-05-02T17:17:45.904Z,21.87
2017-05-02T17:20:12.664Z,18.93
2017-05-02T17:22:39.761Z,18.93
2017-05-02T17:25:06.511Z,14.25
2017-05-02T17:27:33.614Z,20.67
2017-05-02T17:35:08.132Z,15.95
2017-05-02T17:37:37.364Z,17.82
2017-05-02T17:40:04.168Z,16.57
2017-05-02T17:42:33.194Z,14.97
2017-05-02T17:45:00.016Z,15.92
2017-05-02T17:47:26.808Z,24.67
2017-05-02T17:49:54.913Z,33.73
2017-05-02T17:52:21.724Z,27.60
2017-05-02T17:54:48.529Z,21.08
2017-05-02T17:57:17.940Z,20.12
2017-05-02T17:59:44.745Z,25.98
2017-05-02T18:02:11.540Z,23.63
2017-05-02T18:04:41.704Z,23.40
2017-05-02T18:07:08.526Z,22.18
2017-05-02T18:09:39.787Z,23.75
2017-05-02T18:12:08.910Z,25.83
2017-05-02T18:14:36.370Z,24.93
2017-05-02T18:17:03.181Z,25.82
2017-05-02T18:19:30.259Z,26.88
2017-05-02T18:21:58.384Z,22.90
2017-05-02T18:24:25.198Z,28.43
2017-05-02T18:26:52.577Z,32.55
2017-05-02T18:29:19.373Z,26.97
2017-05-02T18:31:47.108Z,24.40
2017-05-02T18:34:14.180Z,31.25
2017-05-02T18:36:41.513Z,27.25
2017-05-02T18:39:08.330Z,29.45
2017-05-02T18:41:35.830Z,22.60
2017-05-02T18:44:02.615Z,19.90
2017-05-02T18:46:30.364Z,20.13
2017-05-02T18:48:57.436Z,23.38
2017-05-02T18:51:24.224Z,18.18
2017-05-02T18:53:51.036Z,21.70
2017-05-02T18:56:18.465Z,18.83
2017-05-02T18:58:45.286Z,22.70
2017-05-02T19:01:12.126Z,20.48
2017-05-02T19:03:39.337Z,23.00
2017-05-02T19:06:06.152Z,29.62
2017-05-02T19:08:33.989Z,28.00
2017-05-02T19:11:02.313Z,26.28
2017-05-02T19:13:29.095Z,27.73
2017-05-02T19:15:55.882Z,28.53
2017-05-02T19:18:23.235Z,27.10
2017-05-02T19:20:50.041Z,20.78
2017-05-02T19:23:16.893Z,21.70
2017-05-02T19:25:44.361Z,26.47
2017-05-02T19:28:11.164Z,22.57
2017-05-02T19:30:37.979Z,22.38
2017-05-02T19:33:05.265Z,21.90
2017-05-02T19:35:32.097Z,28.23
2017-05-02T19:37:58.904Z,23.02
2017-05-02T19:40:26.032Z,19.75
2017-05-02T19:42:52.860Z,16.25
2017-05-02T19:45:19.621Z,22.52
2017-05-02T19:47:53.366Z,20.57
2017-05-02T19:50:20.146Z,20.72
2017-05-02T19:52:46.926Z,21.33
2017-05-02T19:57:46.921Z,23.00
2017-05-02T20:00:15.087Z,23.30
2017-05-02T20:02:41.911Z,18.27
2017-05-02T20:05:08.756Z,20.73
2017-05-02T20:07:35.846Z,23.80
2017-05-02T20:10:02.695Z,20.83
2017-05-02T20:12:29.534Z,25.43
2017-05-02T20:14:58.477Z,21.40
2017-05-02T20:17:25.553Z,21.87
2017-05-02T20:19:52.344Z,21.50
2017-05-02T20:22:19.485Z,21.40
2017-05-02T20:24:46.476Z,22.62
2017-05-02T20:27:13.353Z,21.97
2017-05-02T20:29:40.456Z,24.60
2017-05-02T20:32:11.486Z,28.65
2017-05-02T20:34:41.964Z,24.70
2017-05-02T20:37:09.087Z,25.75
2017-05-02T20:39:36.234Z,28.67
2017-05-02T20:42:03.049Z,27.50
2017-05-02T20:44:30.115Z,34.00
2017-05-02T20:46:56.892Z,25.53
2017-05-02T20:49:23.663Z,29.25
2017-05-02T20:51:51.380Z,29.35
2017-05-02T20:54:18.150Z,25.80
2017-05-02T20:56:44.922Z,32.55
2017-05-02T20:59:12.324Z,31.45
2017-05-02T21:01:39.340Z,31.60
2017-05-02T21:04:06.109Z,29.37
2017-05-02T21:06:33.203Z,36.40
2017-05-02T21:09:00.034Z,33.87
2017-05-02T21:11:26.802Z,31.63
2017-05-02T21:13:53.945Z,43.97
2017-05-02T21:16:20.736Z,36.80
2017-05-02T21:18:47.548Z,35.75
2017-05-02T21:21:14.821Z,36.43
2017-05-02T21:23:41.613Z,40.13
2017-05-02T21:26:08.391Z,43.58
2017-05-02T21:28:35.624Z,37.67
2017-05-02T21:31:02.494Z,40.00
2017-05-02T21:33:29.263Z,49.02
2017-05-02T21:35:56.459Z,39.48
2017-05-02T21:38:23.315Z,39.98
2017-05-02T21:40:50.125Z,52.57
2017-05-02T21:43:17.413Z,41.80
2017-05-02T21:45:44.792Z,40.72
2017-05-02T21:48:11.597Z,45.85
2017-05-02T21:50:40.111Z,41.55
2017-05-02T21:53:06.972Z,42.92
2017-05-02T21:55:34.284Z,40.13
2017-05-02T21:58:01.399Z,41.47
2017-05-02T22:00:28.631Z,41.12
2017-05-02T22:02:55.465Z,37.62
2017-05-02T22:05:22.872Z,39.87
2017-05-02T22:07:49.780Z,39.88
2017-05-02T22:10:16.624Z,41.58
2017-05-02T22:12:43.792Z,45.45
2017-05-02T22:15:10.592Z,38.68
2017-05-02T22:17:52.437Z,48.35
2017-05-02T22:20:19.228Z,55.58
2017-05-02T22:22:46.023Z,44.65
2017-05-02T22:25:13.119Z,42.92
2017-05-02T22:27:39.945Z,46.13
2017-05-02T22:30:06.764Z,44.82
2017-05-02T22:32:34.100Z,47.68
2017-05-02T22:35:00.897Z,48.43
2017-05-02T22:37:27.674Z,41.28
2017-05-02T22:39:55.645Z,39.92
2017-05-02T22:42:22.433Z,45.45
2017-05-02T22:44:49.256Z,40.85
2017-05-02T22:47:16.789Z,44.27
2017-05-02T22:49:43.661Z,40.18
2017-05-02T22:52:10.453Z,44.27
2017-05-02T22:54:37.624Z,41.53
2017-05-02T22:57:04.419Z,39.65
2017-05-02T22:59:31.225Z,43.38
2017-05-02T23:01:58.884Z,43.00
2017-05-02T23:04:26.614Z,42.02
2017-05-02T23:06:53.415Z,47.38
2017-05-02T23:09:20.840Z,50.35
2017-05-02T23:11:48.508Z,39.55
2017-05-02T23:14:15.312Z,41.02
2017-05-02T23:16:42.416Z,44.93
2017-05-02T23:19:09.755Z,39.08
2017-05-02T23:21:36.596Z,39.60
2017-05-02T23:24:04.052Z,43.13
2017-05-02T23:26:30.940Z,44.92
2017-05-02T23:28:57.788Z,46.12
2017-05-02T23:31:24.879Z,46.17
2017-05-02T23:33:51.909Z,46.20
2017-05-02T23:36:18.703Z,55.10
2017-05-02T23:38:46.217Z,46.80
2017-05-02T23:41:13.485Z,49.28
2017-05-02T23:43:40.280Z,44.15
2017-05-02T23:46:07.590Z,47.38
2017-05-02T23:48:34.398Z,47.13
2017-05-02T23:51:01.219Z,49.05
2017-05-02T23:53:28.576Z,48.95
2017-05-02T23:55:55.436Z,48.43
2017-05-02T23:58:22.561Z,45.35
